sensor_id;sensor_type;location;lat;lon;timestamp;temperature;humidity
43808;DHT22;29438;50.664;10.098;2023-04-16T00:02:14;7.80;93.90
43808;DHT22;29438;50.664;10.098;2023-04-16T00:04:40;7.90;94.00
43808;DHT22;29438;50.664;10.098;2023-04-16T00:07:06;7.90;94.00
43808;DHT22;29438;50.664;10.098;2023-04-16T00:09:31;7.80;94.00
43808;DHT22;29438;50.664;10.098;2023-04-16T00:11:57;7.80;94.00
43808;DHT22;29438;50.664;10.098;2023-04-16T00:14:22;7.80;94.10
43808;DHT22;29438;50.664;10.098;2023-04-16T00:16:47;7.70;94.10
43808;DHT22;29438;50.664;10.098;2023-04-16T00:19:13;7.80;94.10
43808;DHT22;29438;50.664;10.098;2023-04-16T00:21:39;7.80;94.00
43808;DHT22;29438;50.664;10.098;2023-04-16T00:24:04;7.80;93.90
43808;DHT22;29438;50.664;10.098;2023-04-16T00:26:30;7.80;93.90
43808;DHT22;29438;50.664;10.098;2023-04-16T00:28:55;7.80;93.80
43808;DHT22;29438;50.664;10.098;2023-04-16T00:31:28;7.80;93.80
43808;DHT22;29438;50.664;10.098;2023-04-16T00:33:54;7.80;93.80
43808;DHT22;29438;50.664;10.098;2023-04-16T00:36:21;7.80;93.60
43808;DHT22;29438;50.664;10.098;2023-04-16T00:38:47;7.80;93.50
43808;DHT22;29438;50.664;10.098;2023-04-16T00:41:12;7.80;93.40
43808;DHT22;29438;50.664;10.098;2023-04-16T00:43:38;7.80;93.50
43808;DHT22;29438;50.664;10.098;2023-04-16T00:46:04;7.80;93.50
43808;DHT22;29438;50.664;10.098;2023-04-16T00:48:32;7.70;93.50
43808;DHT22;29438;50.664;10.098;2023-04-16T00:50:58;7.80;93.20
43808;DHT22;29438;50.664;10.098;2023-04-16T00:53:25;7.90;92.90
43808;DHT22;29438;50.664;10.098;2023-04-16T00:55:51;7.80;92.80
43808;DHT22;29438;50.664;10.098;2023-04-16T00:58:17;7.80;93.00
43808;DHT22;29438;50.664;10.098;2023-04-16T01:00:42;7.80;93.00
43808;DHT22;29438;50.664;10.098;2023-04-16T01:03:08;7.80;93.00
43808;DHT22;29438;50.664;10.098;2023-04-16T01:05:35;7.80;93.00
43808;DHT22;29438;50.664;10.098;2023-04-16T01:08:01;7.80;93.10
43808;DHT22;29438;50.664;10.098;2023-04-16T01:10:26;7.80;93.20
43808;DHT22;29438;50.664;10.098;2023-04-16T01:12:52;7.80;93.30
43808;DHT22;29438;50.664;10.098;2023-04-16T01:15:18;7.70;93.40
43808;DHT22;29438;50.664;10.098;2023-04-16T01:17:44;7.70;93.40
43808;DHT22;29438;50.664;10.098;2023-04-16T01:20:10;7.70;93.50
43808;DHT22;29438;50.664;10.098;2023-04-16T01:22:36;7.70;93.50
43808;DHT22;29438;50.664;10.098;2023-04-16T01:25:02;7.70;93.60
43808;DHT22;29438;50.664;10.098;2023-04-16T01:27:27;7.70;93.70
43808;DHT22;29438;50.664;10.098;2023-04-16T01:29:53;7.70;93.80
43808;DHT22;29438;50.664;10.098;2023-04-16T01:32:20;7.70;93.80
43808;DHT22;29438;50.664;10.098;2023-04-16T01:34:46;7.70;93.80
43808;DHT22;29438;50.664;10.098;2023-04-16T01:37:11;7.70;93.80
43808;DHT22;29438;50.664;10.098;2023-04-16T01:39:37;7.70;93.90
43808;DHT22;29438;50.664;10.098;2023-04-16T01:42:02;7.70;93.90
43808;DHT22;29438;50.664;10.098;2023-04-16T01:44:28;7.70;94.00
43808;DHT22;29438;50.664;10.098;2023-04-16T01:46:55;7.70;93.90
43808;DHT22;29438;50.664;10.098;2023-04-16T01:49:21;7.70;93.90
43808;DHT22;29438;50.664;10.098;2023-04-16T01:51:46;7.70;94.00
43808;DHT22;29438;50.664;10.098;2023-04-16T01:54:12;7.70;93.80
43808;DHT22;29438;50.664;10.098;2023-04-16T01:56:38;7.70;93.80
43808;DHT22;29438;50.664;10.098;2023-04-16T01:59:03;7.70;93.80
43808;DHT22;29438;50.664;10.098;2023-04-16T02:01:29;7.70;93.80
43808;DHT22;29438;50.664;10.098;2023-04-16T02:03:55;7.80;93.80
43808;DHT22;29438;50.664;10.098;2023-04-16T02:06:21;7.70;93.70
43808;DHT22;29438;50.664;10.098;2023-04-16T02:08:46;7.80;93.60
43808;DHT22;29438;50.664;10.098;2023-04-16T02:11:12;7.70;93.60
43808;DHT22;29438;50.664;10.098;2023-04-16T02:13:37;7.70;93.70
43808;DHT22;29438;50.664;10.098;2023-04-16T02:16:03;7.70;93.70
43808;DHT22;29438;50.664;10.098;2023-04-16T02:18:28;7.70;93.70
43808;DHT22;29438;50.664;10.098;2023-04-16T02:20:57;7.70;93.80
43808;DHT22;29438;50.664;10.098;2023-04-16T02:23:22;7.70;93.70
43808;DHT22;29438;50.664;10.098;2023-04-16T02:25:48;7.60;93.70
43808;DHT22;29438;50.664;10.098;2023-04-16T02:28:15;7.70;93.80
43808;DHT22;29438;50.664;10.098;2023-04-16T02:30:41;7.60;93.80
43808;DHT22;29438;50.664;10.098;2023-04-16T02:33:08;7.60;93.80
43808;DHT22;29438;50.664;10.098;2023-04-16T02:35:35;7.60;93.90
43808;DHT22;29438;50.664;10.098;2023-04-16T02:38:02;7.60;93.90
43808;DHT22;29438;50.664;10.098;2023-04-16T02:40:29;7.60;93.90
43808;DHT22;29438;50.664;10.098;2023-04-16T02:42:54;7.60;93.80
43808;DHT22;29438;50.664;10.098;2023-04-16T02:45:20;7.70;93.70
43808;DHT22;29438;50.664;10.098;2023-04-16T02:47:47;7.70;93.60
43808;DHT22;29438;50.664;10.098;2023-04-16T02:50:12;7.70;93.50
43808;DHT22;29438;50.664;10.098;2023-04-16T02:52:38;7.70;93.40
43808;DHT22;29438;50.664;10.098;2023-04-16T02:55:04;7.70;93.50
43808;DHT22;29438;50.664;10.098;2023-04-16T02:57:30;7.70;93.50
43808;DHT22;29438;50.664;10.098;2023-04-16T02:59:55;7.70;93.60
43808;DHT22;29438;50.664;10.098;2023-04-16T03:02:21;7.70;93.60
43808;DHT22;29438;50.664;10.098;2023-04-16T03:04:46;7.70;93.60
43808;DHT22;29438;50.664;10.098;2023-04-16T03:07:12;7.70;93.60
43808;DHT22;29438;50.664;10.098;2023-04-16T03:09:38;7.70;93.60
43808;DHT22;29438;50.664;10.098;2023-04-16T03:12:04;7.70;93.60
43808;DHT22;29438;50.664;10.098;2023-04-16T03:14:30;7.60;93.70
43808;DHT22;29438;50.664;10.098;2023-04-16T03:16:56;7.60;93.60
43808;DHT22;29438;50.664;10.098;2023-04-16T03:19:22;7.60;93.70
43808;DHT22;29438;50.664;10.098;2023-04-16T03:21:47;7.60;93.70
43808;DHT22;29438;50.664;10.098;2023-04-16T03:24:13;7.60;93.70
43808;DHT22;29438;50.664;10.098;2023-04-16T03:26:38;7.60;93.70
43808;DHT22;29438;50.664;10.098;2023-04-16T03:29:04;7.60;93.70
43808;DHT22;29438;50.664;10.098;2023-04-16T03:31:29;7.60;93.70
43808;DHT22;29438;50.664;10.098;2023-04-16T03:33:55;7.60;93.70
43808;DHT22;29438;50.664;10.098;2023-04-16T03:36:21;7.60;93.60
43808;DHT22;29438;50.664;10.098;2023-04-16T03:38:47;7.60;93.60
43808;DHT22;29438;50.664;10.098;2023-04-16T03:41:13;7.60;93.70
43808;DHT22;29438;50.664;10.098;2023-04-16T03:43:38;7.50;93.80
43808;DHT22;29438;50.664;10.098;2023-04-16T03:46:04;7.50;93.80
43808;DHT22;29438;50.664;10.098;2023-04-16T03:48:29;7.50;93.80
43808;DHT22;29438;50.664;10.098;2023-04-16T03:50:55;7.50;93.90
43808;DHT22;29438;50.664;10.098;2023-04-16T03:53:20;7.50;93.90
43808;DHT22;29438;50.664;10.098;2023-04-16T03:55:49;7.50;93.90
43808;DHT22;29438;50.664;10.098;2023-04-16T03:58:15;7.50;93.90
43808;DHT22;29438;50.664;10.098;2023-04-16T04:00:41;7.50;93.90
43808;DHT22;29438;50.664;10.098;2023-04-16T04:03:08;7.50;93.90
43808;DHT22;29438;50.664;10.098;2023-04-16T04:05:40;7.50;93.90
43808;DHT22;29438;50.664;10.098;2023-04-16T04:08:06;7.40;93.90
43808;DHT22;29438;50.664;10.098;2023-04-16T04:10:32;7.40;93.90
43808;DHT22;29438;50.664;10.098;2023-04-16T04:12:59;7.40;93.90
43808;DHT22;29438;50.664;10.098;2023-04-16T04:15:25;7.40;94.00
43808;DHT22;29438;50.664;10.098;2023-04-16T04:17:50;7.40;94.00
43808;DHT22;29438;50.664;10.098;2023-04-16T04:20:16;7.40;93.90
43808;DHT22;29438;50.664;10.098;2023-04-16T04:22:41;7.40;93.90
43808;DHT22;29438;50.664;10.098;2023-04-16T04:25:09;7.40;93.90
43808;DHT22;29438;50.664;10.098;2023-04-16T04:27:35;7.40;93.90
43808;DHT22;29438;50.664;10.098;2023-04-16T04:30:01;7.40;93.90
43808;DHT22;29438;50.664;10.098;2023-04-16T04:32:28;7.40;93.90
43808;DHT22;29438;50.664;10.098;2023-04-16T04:34:54;7.40;93.90
43808;DHT22;29438;50.664;10.098;2023-04-16T04:37:19;7.40;93.90
43808;DHT22;29438;50.664;10.098;2023-04-16T04:39:45;7.40;94.00
43808;DHT22;29438;50.664;10.098;2023-04-16T04:42:10;7.40;94.00
43808;DHT22;29438;50.664;10.098;2023-04-16T04:44:36;7.40;94.00
43808;DHT22;29438;50.664;10.098;2023-04-16T04:47:01;7.40;94.10
43808;DHT22;29438;50.664;10.098;2023-04-16T04:49:27;7.40;94.10
43808;DHT22;29438;50.664;10.098;2023-04-16T04:51:52;7.40;94.10
43808;DHT22;29438;50.664;10.098;2023-04-16T04:54:18;7.40;94.10
43808;DHT22;29438;50.664;10.098;2023-04-16T04:56:43;7.40;94.10
43808;DHT22;29438;50.664;10.098;2023-04-16T04:59:12;7.40;94.10
43808;DHT22;29438;50.664;10.098;2023-04-16T05:01:38;7.40;94.10
43808;DHT22;29438;50.664;10.098;2023-04-16T05:04:03;7.50;94.10
43808;DHT22;29438;50.664;10.098;2023-04-16T05:06:29;7.40;94.10
43808;DHT22;29438;50.664;10.098;2023-04-16T05:08:55;7.40;94.10
43808;DHT22;29438;50.664;10.098;2023-04-16T05:11:21;7.40;93.90
43808;DHT22;29438;50.664;10.098;2023-04-16T05:13:46;7.40;93.90
43808;DHT22;29438;50.664;10.098;2023-04-16T05:16:12;7.40;93.80
43808;DHT22;29438;50.664;10.098;2023-04-16T05:18:37;7.40;93.80
43808;DHT22;29438;50.664;10.098;2023-04-16T05:21:03;7.40;93.80
43808;DHT22;29438;50.664;10.098;2023-04-16T05:23:28;7.40;93.90
43808;DHT22;29438;50.664;10.098;2023-04-16T05:25:54;7.40;93.90
43808;DHT22;29438;50.664;10.098;2023-04-16T05:28:20;7.40;93.90
43808;DHT22;29438;50.664;10.098;2023-04-16T05:30:45;7.40;93.80
43808;DHT22;29438;50.664;10.098;2023-04-16T05:33:11;7.40;93.80
43808;DHT22;29438;50.664;10.098;2023-04-16T05:35:36;7.40;93.80
43808;DHT22;29438;50.664;10.098;2023-04-16T05:38:02;7.40;93.80
43808;DHT22;29438;50.664;10.098;2023-04-16T05:40:28;7.50;93.80
43808;DHT22;29438;50.664;10.098;2023-04-16T05:42:54;7.40;93.80
43808;DHT22;29438;50.664;10.098;2023-04-16T05:45:19;7.50;93.40
43808;DHT22;29438;50.664;10.098;2023-04-16T05:47:45;7.40;93.30
43808;DHT22;29438;50.664;10.098;2023-04-16T05:50:10;7.50;93.20
43808;DHT22;29438;50.664;10.098;2023-04-16T05:52:36;7.50;93.30
43808;DHT22;29438;50.664;10.098;2023-04-16T05:55:02;7.50;93.20
43808;DHT22;29438;50.664;10.098;2023-04-16T05:57:29;7.40;93.00
43808;DHT22;29438;50.664;10.098;2023-04-16T05:59:55;7.50;93.20
43808;DHT22;29438;50.664;10.098;2023-04-16T06:02:20;7.40;93.30
43808;DHT22;29438;50.664;10.098;2023-04-16T06:04:46;7.40;93.40
43808;DHT22;29438;50.664;10.098;2023-04-16T06:07:11;7.40;93.40
43808;DHT22;29438;50.664;10.098;2023-04-16T06:09:37;7.40;93.40
43808;DHT22;29438;50.664;10.098;2023-04-16T06:12:03;7.40;93.40
43808;DHT22;29438;50.664;10.098;2023-04-16T06:14:28;7.40;93.50
43808;DHT22;29438;50.664;10.098;2023-04-16T06:16:54;7.50;93.50
43808;DHT22;29438;50.664;10.098;2023-04-16T06:19:19;7.40;93.60
43808;DHT22;29438;50.664;10.098;2023-04-16T06:21:45;7.40;93.50
43808;DHT22;29438;50.664;10.098;2023-04-16T06:24:10;7.40;93.50
43808;DHT22;29438;50.664;10.098;2023-04-16T06:26:37;7.40;93.50
43808;DHT22;29438;50.664;10.098;2023-04-16T06:29:03;7.40;93.60
43808;DHT22;29438;50.664;10.098;2023-04-16T06:31:29;7.40;93.30
43808;DHT22;29438;50.664;10.098;2023-04-16T06:33:54;7.50;93.40
43808;DHT22;29438;50.664;10.098;2023-04-16T06:36:20;7.50;93.40
43808;DHT22;29438;50.664;10.098;2023-04-16T06:38:45;7.50;93.40
43808;DHT22;29438;50.664;10.098;2023-04-16T06:41:11;7.60;93.30
43808;DHT22;29438;50.664;10.098;2023-04-16T06:43:37;7.70;93.30
43808;DHT22;29438;50.664;10.098;2023-04-16T06:46:02;7.70;93.00
43808;DHT22;29438;50.664;10.098;2023-04-16T06:48:28;7.70;92.90
43808;DHT22;29438;50.664;10.098;2023-04-16T06:50:54;7.70;92.70
43808;DHT22;29438;50.664;10.098;2023-04-16T06:53:20;7.70;92.70
43808;DHT22;29438;50.664;10.098;2023-04-16T06:55:46;7.60;92.80
43808;DHT22;29438;50.664;10.098;2023-04-16T06:58:11;7.60;92.70
43808;DHT22;29438;50.664;10.098;2023-04-16T07:00:36;7.60;93.00
43808;DHT22;29438;50.664;10.098;2023-04-16T07:03:02;7.60;93.00
43808;DHT22;29438;50.664;10.098;2023-04-16T07:05:28;7.60;93.10
43808;DHT22;29438;50.664;10.098;2023-04-16T07:07:53;7.60;93.00
43808;DHT22;29438;50.664;10.098;2023-04-16T07:10:21;7.70;93.10
43808;DHT22;29438;50.664;10.098;2023-04-16T07:12:47;7.70;93.10
43808;DHT22;29438;50.664;10.098;2023-04-16T07:15:12;7.70;93.10
43808;DHT22;29438;50.664;10.098;2023-04-16T07:17:38;7.70;92.90
43808;DHT22;29438;50.664;10.098;2023-04-16T07:20:04;7.70;93.00
43808;DHT22;29438;50.664;10.098;2023-04-16T07:22:30;7.70;93.00
43808;DHT22;29438;50.664;10.098;2023-04-16T07:24:55;7.70;93.00
43808;DHT22;29438;50.664;10.098;2023-04-16T07:27:21;7.70;93.00
43808;DHT22;29438;50.664;10.098;2023-04-16T07:29:46;7.80;93.10
43808;DHT22;29438;50.664;10.098;2023-04-16T07:32:14;7.90;93.10
43808;DHT22;29438;50.664;10.098;2023-04-16T07:34:40;8.00;92.90
43808;DHT22;29438;50.664;10.098;2023-04-16T07:37:05;8.10;92.70
43808;DHT22;29438;50.664;10.098;2023-04-16T07:39:31;8.20;92.40
43808;DHT22;29438;50.664;10.098;2023-04-16T07:41:56;8.20;92.20
43808;DHT22;29438;50.664;10.098;2023-04-16T07:44:22;8.20;92.10
43808;DHT22;29438;50.664;10.098;2023-04-16T07:46:47;8.10;92.10
43808;DHT22;29438;50.664;10.098;2023-04-16T07:49:13;8.10;92.20
43808;DHT22;29438;50.664;10.098;2023-04-16T07:51:38;8.10;92.20
43808;DHT22;29438;50.664;10.098;2023-04-16T07:54:04;8.10;92.20
43808;DHT22;29438;50.664;10.098;2023-04-16T07:56:29;8.00;92.20
43808;DHT22;29438;50.664;10.098;2023-04-16T07:58:55;7.90;92.10
43808;DHT22;29438;50.664;10.098;2023-04-16T08:01:20;8.00;92.40
43808;DHT22;29438;50.664;10.098;2023-04-16T08:03:46;7.90;92.40
43808;DHT22;29438;50.664;10.098;2023-04-16T08:06:11;7.80;92.20
43808;DHT22;29438;50.664;10.098;2023-04-16T08:08:37;7.90;92.50
43808;DHT22;29438;50.664;10.098;2023-04-16T08:11:02;8.00;92.70
43808;DHT22;29438;50.664;10.098;2023-04-16T08:13:28;8.10;92.70
43808;DHT22;29438;50.664;10.098;2023-04-16T08:15:53;8.00;92.40
43808;DHT22;29438;50.664;10.098;2023-04-16T08:18:19;8.00;92.30
43808;DHT22;29438;50.664;10.098;2023-04-16T08:20:45;8.00;92.40
43808;DHT22;29438;50.664;10.098;2023-04-16T08:23:10;8.00;92.30
43808;DHT22;29438;50.664;10.098;2023-04-16T08:25:36;8.00;92.10
43808;DHT22;29438;50.664;10.098;2023-04-16T08:28:01;8.00;92.30
43808;DHT22;29438;50.664;10.098;2023-04-16T08:30:27;8.10;92.30
43808;DHT22;29438;50.664;10.098;2023-04-16T08:32:53;8.20;92.40
43808;DHT22;29438;50.664;10.098;2023-04-16T08:35:18;8.20;92.20
43808;DHT22;29438;50.664;10.098;2023-04-16T08:37:44;8.20;92.00
43808;DHT22;29438;50.664;10.098;2023-04-16T08:40:10;8.20;92.40
43808;DHT22;29438;50.664;10.098;2023-04-16T08:42:44;8.10;92.00
43808;DHT22;29438;50.664;10.098;2023-04-16T08:45:15;8.30;92.20
43808;DHT22;29438;50.664;10.098;2023-04-16T08:47:45;8.40;92.10
43808;DHT22;29438;50.664;10.098;2023-04-16T08:50:13;8.30;91.40
43808;DHT22;29438;50.664;10.098;2023-04-16T08:52:45;8.30;91.50
43808;DHT22;29438;50.664;10.098;2023-04-16T08:55:13;8.30;91.70
43808;DHT22;29438;50.664;10.098;2023-04-16T08:57:50;8.30;91.80
43808;DHT22;29438;50.664;10.098;2023-04-16T09:00:19;8.20;91.90
43808;DHT22;29438;50.664;10.098;2023-04-16T09:02:45;8.20;91.60
43808;DHT22;29438;50.664;10.098;2023-04-16T09:05:14;8.30;92.20
43808;DHT22;29438;50.664;10.098;2023-04-16T09:07:45;8.30;92.00
43808;DHT22;29438;50.664;10.098;2023-04-16T09:10:12;8.40;92.00
43808;DHT22;29438;50.664;10.098;2023-04-16T09:12:40;8.50;91.50
43808;DHT22;29438;50.664;10.098;2023-04-16T09:15:08;8.50;91.60
43808;DHT22;29438;50.664;10.098;2023-04-16T09:17:34;8.50;92.00
43808;DHT22;29438;50.664;10.098;2023-04-16T09:19:59;8.60;91.60
43808;DHT22;29438;50.664;10.098;2023-04-16T09:22:25;8.60;91.10
43808;DHT22;29438;50.664;10.098;2023-04-16T09:24:51;8.50;91.10
43808;DHT22;29438;50.664;10.098;2023-04-16T09:27:16;8.60;91.70
43808;DHT22;29438;50.664;10.098;2023-04-16T09:29:42;8.60;91.50
43808;DHT22;29438;50.664;10.098;2023-04-16T09:32:09;8.40;91.00
43808;DHT22;29438;50.664;10.098;2023-04-16T09:34:53;8.40;91.50
43808;DHT22;29438;50.664;10.098;2023-04-16T09:37:19;8.50;91.70
43808;DHT22;29438;50.664;10.098;2023-04-16T09:39:55;8.50;91.70
43808;DHT22;29438;50.664;10.098;2023-04-16T09:42:23;8.50;91.90
43808;DHT22;29438;50.664;10.098;2023-04-16T09:44:49;8.50;91.60
43808;DHT22;29438;50.664;10.098;2023-04-16T09:47:15;8.50;91.30
43808;DHT22;29438;50.664;10.098;2023-04-16T09:49:41;8.50;91.80
43808;DHT22;29438;50.664;10.098;2023-04-16T09:52:15;8.50;91.40
43808;DHT22;29438;50.664;10.098;2023-04-16T09:54:47;8.70;91.30
43808;DHT22;29438;50.664;10.098;2023-04-16T09:57:17;8.70;91.30
43808;DHT22;29438;50.664;10.098;2023-04-16T09:59:42;8.70;90.80
43808;DHT22;29438;50.664;10.098;2023-04-16T10:02:08;8.50;91.10
43808;DHT22;29438;50.664;10.098;2023-04-16T10:04:50;8.30;91.20
43808;DHT22;29438;50.664;10.098;2023-04-16T10:07:17;8.10;91.30
43808;DHT22;29438;50.664;10.098;2023-04-16T10:09:42;8.00;91.70
43808;DHT22;29438;50.664;10.098;2023-04-16T10:12:08;7.80;91.50
43808;DHT22;29438;50.664;10.098;2023-04-16T10:14:34;7.90;92.10
43808;DHT22;29438;50.664;10.098;2023-04-16T10:17:01;7.70;92.10
43808;DHT22;29438;50.664;10.098;2023-04-16T10:19:27;7.70;92.30
43808;DHT22;29438;50.664;10.098;2023-04-16T10:21:54;7.60;92.60
43808;DHT22;29438;50.664;10.098;2023-04-16T10:24:20;7.60;92.80
43808;DHT22;29438;50.664;10.098;2023-04-16T10:26:46;7.60;92.70
43808;DHT22;29438;50.664;10.098;2023-04-16T10:29:14;7.50;92.70
43808;DHT22;29438;50.664;10.098;2023-04-16T10:31:40;7.50;93.00
43808;DHT22;29438;50.664;10.098;2023-04-16T10:34:08;7.50;93.00
43808;DHT22;29438;50.664;10.098;2023-04-16T10:36:36;7.50;93.00
43808;DHT22;29438;50.664;10.098;2023-04-16T10:39:02;7.50;93.20
43808;DHT22;29438;50.664;10.098;2023-04-16T10:41:31;7.50;92.90
43808;DHT22;29438;50.664;10.098;2023-04-16T10:44:08;7.50;92.80
43808;DHT22;29438;50.664;10.098;2023-04-16T10:46:40;7.60;92.90
43808;DHT22;29438;50.664;10.098;2023-04-16T10:51:52;7.60;92.50
43808;DHT22;29438;50.664;10.098;2023-04-16T10:54:18;7.60;92.60
43808;DHT22;29438;50.664;10.098;2023-04-16T10:56:45;7.70;92.40
43808;DHT22;29438;50.664;10.098;2023-04-16T10:59:12;7.70;92.30
43808;DHT22;29438;50.664;10.098;2023-04-16T11:01:42;7.80;92.30
43808;DHT22;29438;50.664;10.098;2023-04-16T11:14:58;7.70;92.10
43808;DHT22;29438;50.664;10.098;2023-04-16T11:17:41;7.80;91.90
43808;DHT22;29438;50.664;10.098;2023-04-16T11:22:41;7.80;91.70
43808;DHT22;29438;50.664;10.098;2023-04-16T11:25:06;8.00;92.30
43808;DHT22;29438;50.664;10.098;2023-04-16T11:27:32;8.00;91.50
43808;DHT22;29438;50.664;10.098;2023-04-16T11:30:03;8.00;92.00
43808;DHT22;29438;50.664;10.098;2023-04-16T11:32:36;8.10;91.60
43808;DHT22;29438;50.664;10.098;2023-04-16T11:35:06;8.20;91.80
43808;DHT22;29438;50.664;10.098;2023-04-16T11:37:37;8.20;91.50
43808;DHT22;29438;50.664;10.098;2023-04-16T11:40:04;8.20;91.70
43808;DHT22;29438;50.664;10.098;2023-04-16T11:42:32;8.10;91.30
43808;DHT22;29438;50.664;10.098;2023-04-16T11:45:01;8.00;91.30
43808;DHT22;29438;50.664;10.098;2023-04-16T11:47:29;7.90;91.90
43808;DHT22;29438;50.664;10.098;2023-04-16T11:49:56;7.70;92.10
43808;DHT22;29438;50.664;10.098;2023-04-16T11:52:32;7.60;92.30
43808;DHT22;29438;50.664;10.098;2023-04-16T11:54:58;7.50;92.40
43808;DHT22;29438;50.664;10.098;2023-04-16T11:57:29;7.50;92.60
43808;DHT22;29438;50.664;10.098;2023-04-16T11:59:58;7.50;92.90
43808;DHT22;29438;50.664;10.098;2023-04-16T12:02:38;7.40;92.70
43808;DHT22;29438;50.664;10.098;2023-04-16T12:05:29;7.40;92.90
43808;DHT22;29438;50.664;10.098;2023-04-16T12:07:56;7.40;93.00
43808;DHT22;29438;50.664;10.098;2023-04-16T12:10:22;7.50;93.10
43808;DHT22;29438;50.664;10.098;2023-04-16T12:12:48;7.40;93.00
43808;DHT22;29438;50.664;10.098;2023-04-16T12:15:13;7.50;93.30
43808;DHT22;29438;50.664;10.098;2023-04-16T12:17:39;7.50;93.30
43808;DHT22;29438;50.664;10.098;2023-04-16T12:20:13;7.60;93.00
43808;DHT22;29438;50.664;10.098;2023-04-16T12:22:46;7.60;92.80
43808;DHT22;29438;50.664;10.098;2023-04-16T12:25:16;7.50;92.90
43808;DHT22;29438;50.664;10.098;2023-04-16T12:27:50;7.50;93.00
43808;DHT22;29438;50.664;10.098;2023-04-16T12:30:18;7.50;92.90
43808;DHT22;29438;50.664;10.098;2023-04-16T12:32:46;7.40;93.00
43808;DHT22;29438;50.664;10.098;2023-04-16T12:35:12;7.40;93.00
43808;DHT22;29438;50.664;10.098;2023-04-16T12:37:39;7.50;93.20
43808;DHT22;29438;50.664;10.098;2023-04-16T12:40:05;7.50;93.30
43808;DHT22;29438;50.664;10.098;2023-04-16T12:42:32;7.50;93.20
43808;DHT22;29438;50.664;10.098;2023-04-16T12:45:02;7.50;93.00
43808;DHT22;29438;50.664;10.098;2023-04-16T12:47:28;7.60;93.00
43808;DHT22;29438;50.664;10.098;2023-04-16T12:49:55;7.60;92.50
43808;DHT22;29438;50.664;10.098;2023-04-16T12:52:23;7.60;92.70
43808;DHT22;29438;50.664;10.098;2023-04-16T12:54:49;7.70;92.70
43808;DHT22;29438;50.664;10.098;2023-04-16T12:57:15;7.70;92.30
43808;DHT22;29438;50.664;10.098;2023-04-16T12:59:41;7.70;92.10
43808;DHT22;29438;50.664;10.098;2023-04-16T13:02:06;7.60;92.30
43808;DHT22;29438;50.664;10.098;2023-04-16T13:04:32;7.60;92.40
43808;DHT22;29438;50.664;10.098;2023-04-16T13:06:58;7.70;92.50
43808;DHT22;29438;50.664;10.098;2023-04-16T13:09:24;7.70;92.60
43808;DHT22;29438;50.664;10.098;2023-04-16T13:11:50;7.70;92.30
43808;DHT22;29438;50.664;10.098;2023-04-16T13:14:15;7.70;92.20
43808;DHT22;29438;50.664;10.098;2023-04-16T13:16:41;7.70;92.50
43808;DHT22;29438;50.664;10.098;2023-04-16T13:19:06;7.70;92.40
43808;DHT22;29438;50.664;10.098;2023-04-16T13:21:32;7.60;92.20
43808;DHT22;29438;50.664;10.098;2023-04-16T13:23:58;7.70;92.50
43808;DHT22;29438;50.664;10.098;2023-04-16T13:26:24;7.70;92.50
43808;DHT22;29438;50.664;10.098;2023-04-16T13:28:50;7.50;91.90
43808;DHT22;29438;50.664;10.098;2023-04-16T13:31:15;7.50;92.20
43808;DHT22;29438;50.664;10.098;2023-04-16T13:33:44;7.70;92.20
43808;DHT22;29438;50.664;10.098;2023-04-16T13:36:12;7.80;92.20
43808;DHT22;29438;50.664;10.098;2023-04-16T13:38:38;7.70;91.90
43808;DHT22;29438;50.664;10.098;2023-04-16T13:41:03;7.50;91.70
43808;DHT22;29438;50.664;10.098;2023-04-16T13:43:30;7.50;92.00
43808;DHT22;29438;50.664;10.098;2023-04-16T13:45:57;7.40;91.90
43808;DHT22;29438;50.664;10.098;2023-04-16T13:48:23;7.40;92.20
43808;DHT22;29438;50.664;10.098;2023-04-16T13:50:48;7.50;92.30
43808;DHT22;29438;50.664;10.098;2023-04-16T13:53:14;7.40;92.00
43808;DHT22;29438;50.664;10.098;2023-04-16T13:55:39;7.50;92.20
43808;DHT22;29438;50.664;10.098;2023-04-16T13:58:05;7.50;92.40
43808;DHT22;29438;50.664;10.098;2023-04-16T14:00:31;7.50;92.30
43808;DHT22;29438;50.664;10.098;2023-04-16T14:02:57;7.60;92.40
43808;DHT22;29438;50.664;10.098;2023-04-16T14:05:22;7.60;92.20
43808;DHT22;29438;50.664;10.098;2023-04-16T14:07:48;7.50;91.80
43808;DHT22;29438;50.664;10.098;2023-04-16T14:10:14;7.50;92.10
43808;DHT22;29438;50.664;10.098;2023-04-16T14:12:40;7.40;92.30
43808;DHT22;29438;50.664;10.098;2023-04-16T14:15:06;7.30;92.30
43808;DHT22;29438;50.664;10.098;2023-04-16T14:17:34;7.30;92.40
43808;DHT22;29438;50.664;10.098;2023-04-16T14:19:59;7.40;92.60
43808;DHT22;29438;50.664;10.098;2023-04-16T14:22:25;7.40;92.40
43808;DHT22;29438;50.664;10.098;2023-04-16T14:24:50;7.50;92.50
43808;DHT22;29438;50.664;10.098;2023-04-16T14:27:16;7.50;92.50
43808;DHT22;29438;50.664;10.098;2023-04-16T14:29:41;7.70;92.70
43808;DHT22;29438;50.664;10.098;2023-04-16T14:32:08;7.70;92.40
43808;DHT22;29438;50.664;10.098;2023-04-16T14:34:34;7.70;92.30
43808;DHT22;29438;50.664;10.098;2023-04-16T14:36:59;7.60;92.30
43808;DHT22;29438;50.664;10.098;2023-04-16T14:39:25;7.60;92.40
43808;DHT22;29438;50.664;10.098;2023-04-16T14:41:51;7.60;92.30
43808;DHT22;29438;50.664;10.098;2023-04-16T14:44:16;7.50;92.30
43808;DHT22;29438;50.664;10.098;2023-04-16T14:46:42;7.50;92.40
43808;DHT22;29438;50.664;10.098;2023-04-16T14:49:08;7.60;92.70
43808;DHT22;29438;50.664;10.098;2023-04-16T14:51:34;7.60;92.60
43808;DHT22;29438;50.664;10.098;2023-04-16T14:54:01;7.50;92.40
43808;DHT22;29438;50.664;10.098;2023-04-16T14:56:27;7.60;92.50
43808;DHT22;29438;50.664;10.098;2023-04-16T14:58:52;7.50;92.40
43808;DHT22;29438;50.664;10.098;2023-04-16T15:01:18;7.50;92.40
43808;DHT22;29438;50.664;10.098;2023-04-16T15:03:43;7.50;92.50
43808;DHT22;29438;50.664;10.098;2023-04-16T15:06:09;7.50;92.70
43808;DHT22;29438;50.664;10.098;2023-04-16T15:08:34;7.60;92.80
43808;DHT22;29438;50.664;10.098;2023-04-16T15:11:00;7.60;92.70
43808;DHT22;29438;50.664;10.098;2023-04-16T15:13:26;7.70;92.60
43808;DHT22;29438;50.664;10.098;2023-04-16T15:16:01;7.70;92.60
43808;DHT22;29438;50.664;10.098;2023-04-16T15:18:27;7.60;92.50
43808;DHT22;29438;50.664;10.098;2023-04-16T15:20:53;7.70;92.60
43808;DHT22;29438;50.664;10.098;2023-04-16T15:23:19;7.60;92.70
43808;DHT22;29438;50.664;10.098;2023-04-16T15:25:45;7.60;92.70
43808;DHT22;29438;50.664;10.098;2023-04-16T15:28:11;7.60;92.70
43808;DHT22;29438;50.664;10.098;2023-04-16T15:30:38;7.50;92.60
43808;DHT22;29438;50.664;10.098;2023-04-16T15:33:04;7.40;92.90
43808;DHT22;29438;50.664;10.098;2023-04-16T15:35:30;7.40;92.90
43808;DHT22;29438;50.664;10.098;2023-04-16T15:37:55;7.40;92.90
43808;DHT22;29438;50.664;10.098;2023-04-16T15:40:21;7.30;92.50
43808;DHT22;29438;50.664;10.098;2023-04-16T15:42:47;7.30;92.40